Terminal Aerodrome Forecast
Issued by NWS

Home | Current Version | Previous Version | Text Only | Print | Product List | Glossary On
Versions: 1 2 3 4 5 6 7 8 9 10 11 12 13 14
656
FTAK31 PAJN 290520
TAFAYA
TAF
PAYA 290520Z 2906/3006 VRB02KT P6SM OVC150
     FM291400 12010KT P6SM SCT010 BKN090
     FM291800 12010KT P6SM VCSH BKN010 OVC060
     FM292200 13007KT P6SM VCSH BKN025 OVC050
      AMD LTD TO CLD VIS AND WIND 2906/2909=

USA.gov is the U.S. government's official web portal to all federal, state and local government web resources and services.